createdAt,value
2023-01-12T00:00:58.817Z,5.10
2023-01-12T00:03:46.000Z,5.07
2023-01-12T00:06:33.461Z,4.87
2023-01-12T00:09:20.196Z,5.33
2023-01-12T00:12:08.902Z,4.57
2023-01-12T00:14:56.911Z,4.70
2023-01-12T00:17:43.659Z,4.10
2023-01-12T00:20:30.497Z,5.90
2023-01-12T00:23:17.407Z,5.00
2023-01-12T00:26:04.591Z,4.73
2023-01-12T00:28:51.829Z,4.53
2023-01-12T00:31:40.148Z,4.67
2023-01-12T00:34:29.416Z,4.33
2023-01-12T00:37:16.192Z,4.53
2023-01-12T00:40:03.705Z,4.67
2023-01-12T00:43:08.069Z,5.27
2023-01-12T00:45:54.910Z,5.50
2023-01-12T00:48:42.995Z,4.70
2023-01-12T00:51:29.827Z,4.57
2023-01-12T00:54:16.639Z,4.87
2023-01-12T00:57:04.010Z,5.17
2023-01-12T00:59:51.707Z,3.93
2023-01-12T01:02:38.742Z,4.60
2023-01-12T01:05:26.809Z,3.87
2023-01-12T01:08:13.762Z,4.90
2023-01-12T01:11:04.196Z,4.83
2023-01-12T01:13:51.861Z,4.40
2023-01-12T01:16:38.413Z,4.20
2023-01-12T01:19:25.267Z,4.40
2023-01-12T01:22:13.664Z,4.50
2023-01-12T01:25:00.697Z,5.17
2023-01-12T01:27:47.183Z,4.10
2023-01-12T01:30:33.963Z,4.40
2023-01-12T01:33:20.713Z,3.97
2023-01-12T01:36:07.828Z,3.63
2023-01-12T01:38:56.012Z,3.80
2023-01-12T01:41:43.721Z,4.20
2023-01-12T01:44:50.183Z,4.40
2023-01-12T01:47:41.003Z,3.57
2023-01-12T01:50:33.494Z,3.17
2023-01-12T01:53:22.427Z,3.77
2023-01-12T01:56:14.431Z,3.80
2023-01-12T01:59:06.628Z,3.67
2023-01-12T02:01:55.423Z,3.70
2023-01-12T02:04:42.063Z,3.27
2023-01-12T02:07:29.034Z,3.40
2023-01-12T02:10:16.533Z,3.87
2023-01-12T02:13:22.475Z,3.57
2023-01-12T02:16:22.159Z,3.83
2023-01-12T02:19:30.269Z,3.20
2023-01-12T02:22:58.466Z,2.47
2023-01-12T02:26:20.288Z,3.30
2023-01-12T02:29:46.464Z,2.13
2023-01-12T02:32:44.664Z,2.30
2023-01-12T02:35:38.671Z,2.73
2023-01-12T02:38:35.022Z,2.10
2023-01-12T02:41:41.800Z,3.23
2023-01-12T02:44:32.352Z,2.50
2023-01-12T02:47:26.511Z,2.63
2023-01-12T02:50:20.757Z,2.53
2023-01-12T02:53:13.211Z,2.53
2023-01-12T02:56:01.903Z,3.00
2023-01-12T02:58:51.850Z,2.83
2023-01-12T03:01:39.170Z,2.37
2023-01-12T03:04:28.289Z,2.47
2023-01-12T03:07:39.912Z,1.63
2023-01-12T03:10:54.614Z,2.63
2023-01-12T03:13:46.339Z,2.47
2023-01-12T03:16:36.627Z,1.53
2023-01-12T03:19:29.342Z,2.00
2023-01-12T03:22:18.104Z,2.30
2023-01-12T03:25:11.289Z,2.33
2023-01-12T03:28:00.873Z,2.90
2023-01-12T03:30:56.544Z,2.50
2023-01-12T03:33:45.565Z,2.50
2023-01-12T03:36:46.529Z,1.83
2023-01-12T03:39:43.517Z,2.00
2023-01-12T03:42:39.495Z,2.00
2023-01-12T03:45:32.166Z,2.37
2023-01-12T03:48:23.911Z,2.13
2023-01-12T03:51:15.621Z,2.27
2023-01-12T03:54:04.692Z,2.27
2023-01-12T03:56:54.677Z,2.53
2023-01-12T03:59:42.953Z,2.07
2023-01-12T04:02:29.473Z,2.40
2023-01-12T04:05:16.493Z,1.70
2023-01-12T04:08:03.310Z,2.10
2023-01-12T04:10:50.144Z,1.50
2023-01-12T04:13:35.642Z,1.87
2023-01-12T04:16:24.181Z,2.03
2023-01-12T04:19:11.807Z,2.30
2023-01-12T04:22:15.868Z,1.90
2023-01-12T04:25:02.666Z,2.30
2023-01-12T04:27:51.639Z,2.33
2023-01-12T04:30:38.474Z,2.33
2023-01-12T04:33:26.493Z,2.17
2023-01-12T04:36:13.304Z,1.60
2023-01-12T04:39:00.195Z,2.33
2023-01-12T04:41:46.831Z,2.00
2023-01-12T04:44:35.109Z,1.90
2023-01-12T04:47:21.956Z,1.67
2023-01-12T04:50:11.542Z,1.87
2023-01-12T04:52:58.900Z,2.20
2023-01-12T04:55:45.718Z,2.50
2023-01-12T04:58:32.737Z,2.10
2023-01-12T05:01:21.065Z,1.80
2023-01-12T05:04:08.218Z,1.93
2023-01-12T05:06:56.443Z,2.20
2023-01-12T05:10:00.691Z,2.13
2023-01-12T05:12:47.273Z,1.53
2023-01-12T05:15:34.119Z,1.70
2023-01-12T05:18:21.107Z,1.90
2023-01-12T05:21:07.881Z,2.20
2023-01-12T05:23:55.995Z,1.90
2023-01-12T05:26:42.966Z,2.10
2023-01-12T05:29:29.974Z,1.97
2023-01-12T05:32:16.391Z,1.80
2023-01-12T05:35:03.047Z,2.10
2023-01-12T05:37:49.975Z,1.73
2023-01-12T05:40:38.135Z,1.60
2023-01-12T05:43:42.293Z,2.27
2023-01-12T05:46:31.317Z,2.00
2023-01-12T05:49:17.914Z,3.00
2023-01-12T05:52:04.787Z,2.57
2023-01-12T05:54:51.586Z,2.23
2023-01-12T05:57:39.688Z,2.20
2023-01-12T06:00:26.528Z,2.07
2023-01-12T06:03:13.052Z,5.93
2023-01-12T06:06:00.009Z,2.60
2023-01-12T06:08:46.851Z,2.23
2023-01-12T06:11:50.650Z,1.93
2023-01-12T06:14:38.909Z,1.80
2023-01-12T06:17:25.653Z,2.33
2023-01-12T06:20:17.346Z,1.60
2023-01-12T06:23:11.791Z,2.30
2023-01-12T06:26:02.244Z,2.10
2023-01-12T06:28:48.878Z,1.73
2023-01-12T06:31:38.849Z,1.80
2023-01-12T06:34:25.358Z,2.03
2023-01-12T06:37:13.132Z,2.13
2023-01-12T06:39:59.709Z,2.27
2023-01-12T06:42:46.620Z,2.20
2023-01-12T06:45:33.333Z,1.90
2023-01-12T06:48:23.823Z,2.10
2023-01-12T06:51:10.668Z,2.00
2023-01-12T06:53:57.546Z,2.70
2023-01-12T06:56:44.911Z,2.37
2023-01-12T06:59:31.682Z,1.50
2023-01-12T07:02:18.805Z,2.20
2023-01-12T07:05:07.299Z,2.00
2023-01-12T07:07:59.857Z,1.63
2023-01-12T07:10:46.794Z,1.80
2023-01-12T07:13:33.660Z,2.17
2023-01-12T07:16:20.520Z,2.03
2023-01-12T07:19:07.267Z,2.00
2023-01-12T07:21:55.285Z,1.90
2023-01-12T07:24:42.096Z,2.03
2023-01-12T07:27:29.081Z,1.80
2023-01-12T07:30:15.837Z,1.80
2023-01-12T07:33:07.664Z,2.00
2023-01-12T07:35:54.794Z,1.80
2023-01-12T07:38:43.669Z,2.57
2023-01-12T07:41:47.874Z,2.40
2023-01-12T07:44:34.575Z,2.70
2023-01-12T07:47:22.002Z,2.03
2023-01-12T07:50:11.127Z,2.07
2023-01-12T07:53:02.407Z,2.30
2023-01-12T07:55:50.168Z,1.90
2023-01-12T07:58:37.519Z,2.20
2023-01-12T08:01:24.428Z,1.90
2023-01-12T08:04:11.213Z,1.87
2023-01-12T08:06:58.323Z,2.00
2023-01-12T08:09:44.883Z,2.10
2023-01-12T08:12:33.021Z,1.57
2023-01-12T08:15:20.068Z,2.90
2023-01-12T08:18:09.921Z,2.53
2023-01-12T08:20:59.444Z,2.37
2023-01-12T08:23:49.921Z,1.63
2023-01-12T08:26:41.080Z,1.73
2023-01-12T08:29:34.387Z,1.77
2023-01-12T08:32:21.160Z,1.50
2023-01-12T08:35:08.732Z,1.90
2023-01-12T08:37:56.590Z,1.63
2023-01-12T08:41:00.775Z,1.80
2023-01-12T08:44:06.845Z,1.67
2023-01-12T08:46:55.522Z,1.33
2023-01-12T08:49:42.486Z,1.60
2023-01-12T08:52:31.802Z,1.63
2023-01-12T08:55:18.306Z,1.87
2023-01-12T08:58:05.057Z,3.07
2023-01-12T09:00:51.992Z,1.50
2023-01-12T09:03:40.703Z,1.83
2023-01-12T09:06:28.959Z,1.97
2023-01-12T09:09:17.341Z,1.83
2023-01-12T09:12:04.298Z,1.63
2023-01-12T09:14:51.018Z,1.50
2023-01-12T09:17:37.952Z,2.40
2023-01-12T09:20:26.107Z,1.57
2023-01-12T09:23:12.846Z,1.60
2023-01-12T09:26:04.655Z,1.97
2023-01-12T09:28:51.952Z,1.57
2023-01-12T09:31:41.055Z,1.70
2023-01-12T09:34:28.034Z,1.13
2023-01-12T09:37:16.045Z,1.70
2023-01-12T09:40:04.482Z,2.43
2023-01-12T09:43:11.078Z,1.80
2023-01-12T09:46:15.057Z,1.57
2023-01-12T09:49:01.852Z,1.60
2023-01-12T09:51:57.826Z,1.50
2023-01-12T09:54:48.971Z,1.60
2023-01-12T09:57:58.339Z,2.17
2023-01-12T10:00:44.888Z,2.10
2023-01-12T10:03:35.747Z,1.40
2023-01-12T10:06:23.113Z,2.00
2023-01-12T10:09:14.702Z,1.60
2023-01-12T10:12:13.213Z,2.10
2023-01-12T10:15:29.524Z,1.80
2023-01-12T10:18:22.208Z,1.60
2023-01-12T10:21:10.896Z,1.93
2023-01-12T10:23:57.999Z,1.83
2023-01-12T10:26:46.422Z,1.93
2023-01-12T10:29:34.656Z,1.60
2023-01-12T10:32:22.140Z,1.70
2023-01-12T10:35:16.367Z,1.43
2023-01-12T10:38:15.735Z,1.37
2023-01-12T10:41:12.881Z,1.73
2023-01-12T10:44:17.486Z,1.83
2023-01-12T10:47:17.055Z,1.33
2023-01-12T10:50:21.795Z,1.57
2023-01-12T10:53:16.895Z,1.80
2023-01-12T10:56:13.920Z,1.47
2023-01-12T10:59:03.738Z,1.60
2023-01-12T11:01:53.028Z,1.53
2023-01-12T11:04:43.023Z,1.60
2023-01-12T11:07:30.468Z,2.20
2023-01-12T11:10:22.036Z,1.50
2023-01-12T11:13:25.875Z,1.40
2023-01-12T11:16:20.669Z,1.77
2023-01-12T11:19:17.733Z,1.83
2023-01-12T11:22:10.200Z,1.63
2023-01-12T11:25:01.867Z,1.63
2023-01-12T11:27:52.372Z,1.57
2023-01-12T11:30:44.720Z,1.80
2023-01-12T11:33:36.580Z,2.60
2023-01-12T11:36:28.386Z,1.23
2023-01-12T11:39:21.106Z,1.40
2023-01-12T11:42:31.815Z,2.10
2023-01-12T11:45:23.430Z,1.77
2023-01-12T11:48:19.933Z,1.53
2023-01-12T11:51:06.715Z,1.63
2023-01-12T11:53:53.636Z,1.70
2023-01-12T11:57:15.044Z,1.57
2023-01-12T12:00:15.133Z,1.83
2023-01-12T12:03:27.137Z,1.50
2023-01-12T12:06:40.043Z,1.50
2023-01-12T12:09:40.958Z,1.30
2023-01-12T12:12:40.063Z,1.70
2023-01-12T12:15:33.784Z,1.70
2023-01-12T12:18:33.026Z,1.40
2023-01-12T12:21:36.334Z,1.70
2023-01-12T12:24:42.086Z,2.03
2023-01-12T12:27:46.004Z,1.40
2023-01-12T12:30:50.129Z,1.40
2023-01-12T12:34:12.513Z,1.60
2023-01-12T12:37:06.324Z,1.20
2023-01-12T12:39:58.485Z,1.57
2023-01-12T12:43:13.101Z,1.73
2023-01-12T12:46:10.693Z,1.50
2023-01-12T12:49:02.127Z,1.37
2023-01-12T12:51:50.737Z,1.90
2023-01-12T12:54:38.130Z,1.40
2023-01-12T12:57:25.880Z,1.40
2023-01-12T13:00:31.489Z,1.50
2023-01-12T13:03:48.287Z,1.70
2023-01-12T13:06:36.332Z,1.23
2023-01-12T13:09:41.138Z,1.20
2023-01-12T13:12:33.421Z,1.20
2023-01-12T13:15:36.686Z,1.50
2023-01-12T13:19:03.747Z,1.30
2023-01-12T13:21:57.111Z,1.17
2023-01-12T13:24:43.730Z,1.73
2023-01-12T13:27:52.541Z,1.50
2023-01-12T13:30:51.352Z,1.07
2023-01-12T13:33:38.490Z,0.90
2023-01-12T13:36:32.315Z,1.00
2023-01-12T13:39:19.038Z,1.10
2023-01-12T13:42:26.006Z,1.07
2023-01-12T13:45:19.527Z,1.10
2023-01-12T13:48:08.705Z,0.97
2023-01-12T13:50:59.507Z,1.10
2023-01-12T13:53:58.724Z,1.23
2023-01-12T13:56:54.944Z,1.00
2023-01-12T13:59:41.831Z,1.00
2023-01-12T14:02:31.609Z,0.90
2023-01-12T14:05:30.512Z,0.83
2023-01-12T14:08:50.571Z,1.00
2023-01-12T14:12:16.156Z,1.20
2023-01-12T14:15:42.549Z,1.63
2023-01-12T14:18:41.395Z,1.00
2023-01-12T14:21:32.946Z,0.90
2023-01-12T14:24:23.516Z,1.23
2023-01-12T14:27:17.889Z,1.30
2023-01-12T14:30:04.771Z,0.90
2023-01-12T14:32:51.762Z,1.20
2023-01-12T14:35:47.021Z,1.00
2023-01-12T14:38:35.683Z,1.10
2023-01-12T14:41:43.394Z,0.87
2023-01-12T14:44:47.962Z,0.90
2023-01-12T14:47:35.556Z,1.10
2023-01-12T14:50:23.584Z,1.00
2023-01-12T14:53:33.446Z,1.10
2023-01-12T14:56:23.908Z,0.87
2023-01-12T14:59:16.029Z,1.10
2023-01-12T15:02:34.881Z,1.40
2023-01-12T15:05:25.419Z,0.80
2023-01-12T15:08:23.617Z,1.10
2023-01-12T15:11:11.886Z,1.00
2023-01-12T15:14:00.650Z,0.77
2023-01-12T15:17:04.731Z,1.10
2023-01-12T15:20:08.796Z,1.03
2023-01-12T15:23:09.625Z,1.17
2023-01-12T15:25:56.506Z,0.97
2023-01-12T15:28:43.385Z,0.90
2023-01-12T15:31:34.516Z,0.80
2023-01-12T15:34:21.228Z,1.00
2023-01-12T15:37:09.623Z,0.70
2023-01-12T15:39:59.861Z,0.93
2023-01-12T15:42:46.919Z,0.93
2023-01-12T15:45:35.768Z,0.90
2023-01-12T15:48:23.638Z,0.80
2023-01-12T15:51:14.065Z,1.20
2023-01-12T15:54:00.996Z,0.80
2023-01-12T15:56:48.382Z,0.93
2023-01-12T15:59:34.759Z,0.93
2023-01-12T16:02:34.489Z,1.40
2023-01-12T16:05:26.413Z,1.20
2023-01-12T16:08:13.006Z,1.20
2023-01-12T16:11:13.475Z,0.80
2023-01-12T16:14:00.128Z,1.20
2023-01-12T16:16:53.243Z,1.10
2023-01-12T16:19:42.331Z,1.37
2023-01-12T16:22:33.804Z,1.30
2023-01-12T16:25:20.819Z,1.00
2023-01-12T16:28:07.431Z,0.83
2023-01-12T16:30:55.101Z,0.93
2023-01-12T16:33:43.684Z,0.90
2023-01-12T16:36:30.178Z,1.00
2023-01-12T16:39:18.657Z,0.90
2023-01-12T16:42:05.289Z,0.90
2023-01-12T16:44:52.147Z,0.80
2023-01-12T16:47:39.123Z,1.20
2023-01-12T16:50:26.094Z,1.00
2023-01-12T16:53:14.258Z,0.93
2023-01-12T16:56:04.039Z,1.00
2023-01-12T16:58:51.944Z,0.70
2023-01-12T17:01:39.201Z,1.37
2023-01-12T17:04:25.688Z,1.00
2023-01-12T17:07:13.239Z,0.97
2023-01-12T17:10:00.328Z,1.90
2023-01-12T17:12:52.967Z,1.13
2023-01-12T17:15:47.333Z,1.20
2023-01-12T17:18:34.227Z,1.00
2023-01-12T17:21:21.657Z,1.10
2023-01-12T17:24:08.695Z,1.00
2023-01-12T17:26:57.303Z,1.00
2023-01-12T17:29:48.473Z,1.00
2023-01-12T17:32:35.141Z,0.97
2023-01-12T17:35:22.062Z,0.97
2023-01-12T17:38:08.917Z,1.10
2023-01-12T17:40:55.753Z,1.20
2023-01-12T17:43:43.697Z,1.10
2023-01-12T17:46:34.972Z,1.07
2023-01-12T17:49:22.274Z,1.20
2023-01-12T17:52:09.123Z,1.10
2023-01-12T17:54:55.476Z,1.10
2023-01-12T17:57:42.409Z,1.30
2023-01-12T18:00:29.167Z,1.70
2023-01-12T18:03:17.317Z,1.10
2023-01-12T18:06:09.057Z,1.30
2023-01-12T18:09:00.664Z,0.80
2023-01-12T18:11:47.434Z,1.00
2023-01-12T18:14:35.260Z,1.10
2023-01-12T18:17:23.937Z,0.90
2023-01-12T18:20:12.300Z,1.03
2023-01-12T18:22:59.311Z,1.00
2023-01-12T18:25:46.576Z,1.10
2023-01-12T18:28:33.659Z,1.20
2023-01-12T18:31:22.169Z,1.20
2023-01-12T18:34:09.114Z,1.00
2023-01-12T18:36:56.902Z,1.00
2023-01-12T18:39:46.498Z,1.20
2023-01-12T18:42:50.607Z,1.50
2023-01-12T18:45:37.370Z,0.93
2023-01-12T18:48:24.309Z,0.90
2023-01-12T18:51:28.219Z,1.10
2023-01-12T18:54:16.392Z,1.03
2023-01-12T18:57:06.639Z,1.10
2023-01-12T18:59:57.353Z,1.60
2023-01-12T19:02:44.924Z,1.00
2023-01-12T19:05:36.874Z,1.00
2023-01-12T19:08:41.439Z,1.23
2023-01-12T19:11:30.552Z,1.13
2023-01-12T19:14:35.950Z,1.10
2023-01-12T19:17:29.873Z,0.90
2023-01-12T19:20:17.861Z,1.13
2023-01-12T19:23:22.524Z,1.03
2023-01-12T19:26:29.172Z,1.40
2023-01-12T19:29:21.174Z,1.10
2023-01-12T19:32:08.404Z,1.40
2023-01-12T19:35:02.292Z,0.90
2023-01-12T19:37:53.056Z,1.00
2023-01-12T19:40:49.143Z,1.07
2023-01-12T19:43:37.906Z,1.10
2023-01-12T19:46:27.143Z,0.97
2023-01-12T19:49:17.193Z,1.10
2023-01-12T19:52:04.635Z,1.00
2023-01-12T19:54:51.704Z,1.00
2023-01-12T19:57:38.865Z,1.00
2023-01-12T20:00:39.832Z,1.13
2023-01-12T20:03:28.765Z,1.07
2023-01-12T20:06:15.792Z,1.13
2023-01-12T20:09:02.674Z,1.00
2023-01-12T20:11:54.628Z,1.00
2023-01-12T20:14:43.963Z,1.00
2023-01-12T20:17:32.466Z,0.97
2023-01-12T20:20:21.258Z,1.00
2023-01-12T20:23:09.503Z,1.10
2023-01-12T20:25:57.186Z,1.10
2023-01-12T20:28:44.912Z,0.93
2023-01-12T20:31:44.849Z,0.90
2023-01-12T20:34:47.248Z,1.17
2023-01-12T20:37:37.652Z,0.90
2023-01-12T20:40:25.731Z,1.00
2023-01-12T20:43:17.827Z,1.00
2023-01-12T20:46:09.168Z,1.20
2023-01-12T20:48:56.384Z,1.00
2023-01-12T20:51:51.231Z,1.00
2023-01-12T20:54:39.738Z,1.07
2023-01-12T20:57:27.381Z,1.10
2023-01-12T21:00:15.598Z,1.50
2023-01-12T21:03:12.289Z,0.83
2023-01-12T21:06:01.344Z,1.17
2023-01-12T21:08:50.205Z,1.00
2023-01-12T21:11:39.138Z,1.13
2023-01-12T21:14:28.896Z,1.00
2023-01-12T21:17:19.071Z,1.07
2023-01-12T21:20:07.036Z,0.97
2023-01-12T21:22:54.006Z,1.20
2023-01-12T21:25:44.039Z,1.10
2023-01-12T21:28:32.626Z,0.93
2023-01-12T21:31:19.420Z,1.13
2023-01-12T21:34:06.222Z,1.10
2023-01-12T21:36:52.925Z,1.30
2023-01-12T21:39:56.727Z,1.20
2023-01-12T21:43:00.997Z,1.40
2023-01-12T21:45:51.550Z,1.30
2023-01-12T21:48:38.703Z,1.40
2023-01-12T21:51:25.376Z,1.73
2023-01-12T21:54:12.193Z,1.27
2023-01-12T21:56:59.183Z,1.17
2023-01-12T21:59:45.530Z,1.10
2023-01-12T22:02:34.100Z,1.50
2023-01-12T22:05:21.662Z,1.30
2023-01-12T22:08:08.186Z,1.33
2023-01-12T22:10:54.944Z,1.30
2023-01-12T22:13:43.548Z,1.20
2023-01-12T22:16:30.167Z,1.13
2023-01-12T22:19:18.402Z,1.30
2023-01-12T22:22:06.409Z,1.50
2023-01-12T22:24:53.055Z,1.20
2023-01-12T22:27:42.023Z,1.07
2023-01-12T22:30:29.530Z,1.30
2023-01-12T22:33:16.478Z,1.57
2023-01-12T22:36:05.224Z,1.80
2023-01-12T22:38:52.112Z,1.30
2023-01-12T22:41:39.091Z,1.47
2023-01-12T22:44:26.228Z,1.40
2023-01-12T22:47:13.531Z,1.30
2023-01-12T22:49:59.930Z,1.13
2023-01-12T22:52:55.526Z,1.40
2023-01-12T22:55:42.364Z,1.50
2023-01-12T22:58:29.189Z,1.50
2023-01-12T23:01:16.975Z,1.20
2023-01-12T23:04:03.920Z,1.23
2023-01-12T23:06:50.707Z,1.30
2023-01-12T23:09:39.118Z,1.20
2023-01-12T23:12:25.910Z,1.37
2023-01-12T23:15:15.382Z,1.37
2023-01-12T23:18:02.240Z,1.30
2023-01-12T23:20:50.445Z,1.40
2023-01-12T23:23:37.150Z,1.43
2023-01-12T23:26:27.589Z,1.47
2023-01-12T23:29:14.693Z,1.37
2023-01-12T23:32:01.411Z,1.30
2023-01-12T23:34:48.342Z,1.40
2023-01-12T23:37:35.543Z,1.13
2023-01-12T23:40:22.658Z,1.30
2023-01-12T23:43:10.535Z,0.90
2023-01-12T23:46:00.556Z,1.40
2023-01-12T23:48:47.433Z,1.47
2023-01-12T23:51:36.390Z,1.00
2023-01-12T23:54:23.168Z,1.20
2023-01-12T23:57:10.263Z,1.40
2023-01-12T23:59:58.613Z,1.13
